createdAt,value
2023-02-22T00:02:14.094Z,6.20
2023-02-22T00:04:42.574Z,6.16
2023-02-22T00:07:11.632Z,6.11
2023-02-22T00:09:39.971Z,6.07
2023-02-22T00:12:10.150Z,6.04
2023-02-22T00:14:40.308Z,6.00
2023-02-22T00:17:09.040Z,5.96
2023-02-22T00:19:38.075Z,5.92
2023-02-22T00:22:06.477Z,5.89
2023-02-22T00:24:36.185Z,5.84
2023-02-22T00:27:04.678Z,5.80
2023-02-22T00:29:34.432Z,5.76
2023-02-22T00:32:03.115Z,5.73
2023-02-22T00:34:31.791Z,5.70
2023-02-22T00:37:02.924Z,5.66
2023-02-22T00:39:31.793Z,5.62
2023-02-22T00:42:00.360Z,5.58
2023-02-22T00:44:28.915Z,5.53
2023-02-22T00:46:57.431Z,5.49
2023-02-22T00:49:26.194Z,5.45
2023-02-22T00:51:54.846Z,5.42
2023-02-22T00:54:23.314Z,5.38
2023-02-22T00:56:51.846Z,5.35
2023-02-22T00:59:20.921Z,5.30
2023-02-22T01:01:49.455Z,5.26
2023-02-22T01:04:18.462Z,5.22
2023-02-22T01:06:47.221Z,5.19
2023-02-22T01:09:15.768Z,5.16
2023-02-22T01:11:45.385Z,5.14
2023-02-22T01:14:13.736Z,5.12
2023-02-22T01:16:42.092Z,5.10
2023-02-22T01:19:12.681Z,5.09
2023-02-22T01:21:41.199Z,5.08
2023-02-22T01:24:09.554Z,5.09
2023-02-22T01:26:38.014Z,5.08
2023-02-22T01:29:07.293Z,5.07
2023-02-22T01:31:35.830Z,5.07
2023-02-22T01:34:04.203Z,5.07
2023-02-22T01:36:32.525Z,5.07
2023-02-22T01:39:00.816Z,5.09
2023-02-22T01:41:29.170Z,5.10
2023-02-22T01:43:57.454Z,5.10
2023-02-22T01:46:27.861Z,5.12
2023-02-22T01:49:06.309Z,5.13
2023-02-22T01:51:43.054Z,5.14
2023-02-22T01:54:15.888Z,5.16
2023-02-22T01:56:56.294Z,5.17
2023-02-22T01:59:24.594Z,5.19
2023-02-22T02:01:53.102Z,5.20
2023-02-22T02:04:25.571Z,5.21
2023-02-22T02:06:58.286Z,5.22
2023-02-22T02:09:49.942Z,5.22
2023-02-22T02:12:19.830Z,5.22
2023-02-22T02:14:48.160Z,5.23
2023-02-22T02:17:22.197Z,5.24
2023-02-22T02:20:14.740Z,5.23
2023-02-22T02:23:13.569Z,5.20
2023-02-22T02:26:06.161Z,5.18
2023-02-22T02:28:57.414Z,5.15
2023-02-22T02:31:57.107Z,5.12
2023-02-22T02:35:15.323Z,5.08
2023-02-22T02:38:30.455Z,5.05
2023-02-22T02:41:26.759Z,5.01
2023-02-22T02:44:02.633Z,4.99
2023-02-22T02:46:40.492Z,4.97
2023-02-22T02:49:15.436Z,4.97
2023-02-22T02:51:50.442Z,4.97
2023-02-22T02:54:19.862Z,5.00
2023-02-22T02:56:48.680Z,5.02
2023-02-22T02:59:35.032Z,5.05
2023-02-22T03:02:34.745Z,5.06
2023-02-22T03:05:36.188Z,5.08
2023-02-22T03:08:39.740Z,5.09
2023-02-22T03:11:16.575Z,5.10
2023-02-22T03:13:58.488Z,5.12
2023-02-22T03:17:04.759Z,5.14
2023-02-22T03:20:01.819Z,5.17
2023-02-22T03:22:44.056Z,5.18
2023-02-22T03:25:25.024Z,5.21
2023-02-22T03:28:03.175Z,5.23
2023-02-22T03:31:00.944Z,5.27
2023-02-22T03:34:01.839Z,5.29
2023-02-22T03:36:39.510Z,5.32
2023-02-22T03:39:16.084Z,5.36
2023-02-22T03:41:51.437Z,5.38
2023-02-22T03:44:24.811Z,5.41
2023-02-22T03:46:56.849Z,5.42
2023-02-22T03:49:36.102Z,5.44
2023-02-22T03:52:05.590Z,5.45
2023-02-22T03:54:35.100Z,5.47
2023-02-22T03:57:18.051Z,5.48
2023-02-22T03:59:47.148Z,5.50
2023-02-22T04:02:19.088Z,5.51
2023-02-22T04:04:48.355Z,5.51
2023-02-22T04:10:24.538Z,5.50
2023-02-22T04:12:53.952Z,5.47
2023-02-22T04:15:24.667Z,5.45
2023-02-22T04:17:53.433Z,5.44
2023-02-22T04:20:25.527Z,5.43
2023-02-22T04:22:55.877Z,5.43
2023-02-22T04:25:24.710Z,5.44
2023-02-22T04:27:54.658Z,5.43
2023-02-22T04:30:23.506Z,5.43
2023-02-22T04:32:51.895Z,5.44
2023-02-22T04:35:20.415Z,5.44
2023-02-22T04:37:48.770Z,5.47
2023-02-22T04:40:17.723Z,5.49
2023-02-22T04:42:46.080Z,5.53
2023-02-22T04:45:14.791Z,5.55
2023-02-22T04:47:43.154Z,5.57
2023-02-22T04:50:12.768Z,5.57
2023-02-22T04:52:41.149Z,5.58
2023-02-22T04:55:10.003Z,5.62
2023-02-22T04:57:39.455Z,5.64
2023-02-22T05:00:10.435Z,5.66
2023-02-22T05:02:40.001Z,5.69
2023-02-22T05:05:08.748Z,5.71
2023-02-22T05:07:37.618Z,5.73
2023-02-22T05:10:06.378Z,5.75
2023-02-22T05:12:36.012Z,5.77
2023-02-22T05:15:06.644Z,5.78
2023-02-22T05:17:36.645Z,5.79
2023-02-22T05:20:05.593Z,5.79
2023-02-22T05:22:34.645Z,5.79
2023-02-22T05:25:03.348Z,5.79
2023-02-22T05:27:31.620Z,5.79
2023-02-22T05:30:00.306Z,5.79
2023-02-22T05:32:28.646Z,5.80
2023-02-22T05:34:56.944Z,5.80
2023-02-22T05:37:25.270Z,5.79
2023-02-22T05:39:53.638Z,5.79
2023-02-22T05:42:23.430Z,5.78
2023-02-22T05:44:51.826Z,5.77
2023-02-22T05:47:20.174Z,5.76
2023-02-22T05:49:48.543Z,5.75
2023-02-22T05:52:16.969Z,5.73
2023-02-22T05:54:45.260Z,5.73
2023-02-22T05:57:13.560Z,5.73
2023-02-22T05:59:43.064Z,5.74
2023-02-22T06:02:11.513Z,5.74
2023-02-22T06:04:40.225Z,5.75
2023-02-22T06:07:08.636Z,5.76
2023-02-22T06:09:37.040Z,5.78
2023-02-22T06:12:06.385Z,5.80
2023-02-22T06:14:35.236Z,5.80
2023-02-22T06:17:05.390Z,5.82
2023-02-22T06:19:33.758Z,5.83
2023-02-22T06:22:03.059Z,5.84
2023-02-22T06:24:31.394Z,5.84
2023-02-22T06:27:02.172Z,5.86
2023-02-22T06:29:30.504Z,5.87
2023-02-22T06:31:58.953Z,5.90
2023-02-22T06:34:27.409Z,5.91
2023-02-22T06:36:55.773Z,5.93
2023-02-22T06:39:25.607Z,5.95
2023-02-22T06:41:56.398Z,6.00
2023-02-22T06:44:24.777Z,6.05
2023-02-22T06:46:53.154Z,6.10
2023-02-22T06:49:21.543Z,6.15
2023-02-22T06:51:49.984Z,6.21
2023-02-22T06:54:18.393Z,6.28
2023-02-22T06:56:46.734Z,6.36
2023-02-22T06:59:16.043Z,6.41
2023-02-22T07:01:44.813Z,6.47
2023-02-22T07:04:13.338Z,6.52
2023-02-22T07:06:49.804Z,6.59
2023-02-22T07:09:19.053Z,6.68
2023-02-22T07:11:47.387Z,6.77
2023-02-22T07:14:17.581Z,6.84
2023-02-22T07:16:46.258Z,6.93
2023-02-22T07:19:14.820Z,6.99
2023-02-22T07:21:43.190Z,7.06
2023-02-22T07:24:12.645Z,7.13
2023-02-22T07:26:42.383Z,7.22
2023-02-22T07:29:12.186Z,7.29
2023-02-22T07:31:40.537Z,7.38
2023-02-22T07:34:08.864Z,7.45
2023-02-22T07:36:37.262Z,7.52
2023-02-22T07:39:08.745Z,7.60
2023-02-22T07:41:37.117Z,7.68
2023-02-22T07:44:05.903Z,7.73
2023-02-22T07:46:34.269Z,7.76
2023-02-22T07:49:02.591Z,7.82
2023-02-22T07:51:30.949Z,7.87
2023-02-22T07:53:59.422Z,7.92
2023-02-22T07:56:27.762Z,7.98
2023-02-22T07:58:56.124Z,8.05
2023-02-22T08:01:24.782Z,8.12
2023-02-22T08:03:54.062Z,8.19
2023-02-22T08:06:25.700Z,8.24
2023-02-22T08:08:54.032Z,8.29
2023-02-22T08:11:22.429Z,8.38
2023-02-22T08:13:50.855Z,8.48
2023-02-22T08:16:19.180Z,8.58
2023-02-22T08:18:47.552Z,8.63
2023-02-22T08:21:17.382Z,8.68
2023-02-22T08:23:50.667Z,8.78
2023-02-22T08:26:20.900Z,8.90
2023-02-22T08:28:49.467Z,9.04
2023-02-22T08:31:18.194Z,9.14
2023-02-22T08:33:49.952Z,9.27
2023-02-22T08:36:18.671Z,9.38
2023-02-22T08:38:47.048Z,9.49
2023-02-22T08:41:15.596Z,9.62
2023-02-22T08:43:44.061Z,9.74
2023-02-22T08:46:12.616Z,9.85
2023-02-22T08:48:51.373Z,9.93
2023-02-22T08:51:20.754Z,10.03
2023-02-22T08:53:49.129Z,10.11
2023-02-22T08:56:17.888Z,10.31
2023-02-22T08:58:46.330Z,10.55
2023-02-22T09:01:19.294Z,10.80
2023-02-22T09:03:52.023Z,10.99
2023-02-22T09:06:20.398Z,11.15
2023-02-22T09:08:48.747Z,11.29
2023-02-22T09:11:18.751Z,11.42
2023-02-22T09:13:47.780Z,11.57
2023-02-22T09:16:16.344Z,11.72
2023-02-22T09:18:44.801Z,11.83
2023-02-22T09:21:13.231Z,11.91
2023-02-22T09:23:41.629Z,12.02
2023-02-22T09:26:10.542Z,12.10
2023-02-22T09:28:38.921Z,12.18
2023-02-22T09:31:08.608Z,12.25
2023-02-22T09:33:36.942Z,12.32
2023-02-22T09:36:06.938Z,12.42
2023-02-22T09:38:36.266Z,12.53
2023-02-22T09:41:34.571Z,12.63
2023-02-22T09:44:36.493Z,12.67
2023-02-22T09:47:10.614Z,12.67
2023-02-22T09:49:48.919Z,12.70
2023-02-22T09:52:19.038Z,12.74
2023-02-22T09:54:54.406Z,12.80
2023-02-22T09:57:31.961Z,12.89
2023-02-22T10:00:13.672Z,12.93
2023-02-22T10:03:00.805Z,13.01
2023-02-22T10:05:39.744Z,13.09
2023-02-22T10:08:19.077Z,13.16
2023-02-22T10:11:00.843Z,13.17
2023-02-22T10:13:55.500Z,13.22
2023-02-22T10:16:53.304Z,13.29
2023-02-22T10:19:50.162Z,13.39
2023-02-22T10:22:32.323Z,13.46
2023-02-22T10:25:19.325Z,13.50
2023-02-22T10:28:03.708Z,13.58
2023-02-22T10:30:39.813Z,13.61
2023-02-22T10:33:17.300Z,13.63
2023-02-22T10:35:47.256Z,13.67
2023-02-22T10:38:32.010Z,13.70
2023-02-22T10:41:09.539Z,13.73
2023-02-22T10:43:40.806Z,13.77
2023-02-22T10:46:21.110Z,13.79
2023-02-22T10:48:55.448Z,13.88
2023-02-22T10:51:24.618Z,13.99
2023-02-22T10:54:27.003Z,14.07
2023-02-22T10:56:56.917Z,14.15
2023-02-22T10:59:35.805Z,14.14
2023-02-22T11:02:16.031Z,14.20
2023-02-22T11:04:54.334Z,14.19
2023-02-22T11:07:36.830Z,14.05
2023-02-22T11:10:09.490Z,13.96
2023-02-22T11:12:43.672Z,13.94
2023-02-22T11:15:18.454Z,13.86
2023-02-22T11:17:49.233Z,13.81
2023-02-22T11:20:26.489Z,13.71
2023-02-22T11:22:58.466Z,13.67
2023-02-22T11:25:42.551Z,13.64
2023-02-22T11:28:31.314Z,13.55
2023-02-22T11:31:20.624Z,13.43
2023-02-22T11:33:58.526Z,13.31
2023-02-22T11:36:42.056Z,13.23
2023-02-22T11:39:34.493Z,13.20
2023-02-22T11:42:27.911Z,13.18
2023-02-22T11:45:23.566Z,13.19
2023-02-22T11:47:55.302Z,13.16
2023-02-22T11:51:00.063Z,13.04
2023-02-22T11:53:34.478Z,12.84
2023-02-22T11:56:35.599Z,12.78
2023-02-22T11:59:58.693Z,12.75
2023-02-22T12:02:57.399Z,12.70
2023-02-22T12:05:45.300Z,12.71
2023-02-22T12:08:37.293Z,12.73
2023-02-22T12:11:27.573Z,12.86
2023-02-22T12:14:31.875Z,13.06
2023-02-22T12:17:43.665Z,13.19
2023-02-22T12:20:24.729Z,13.34
2023-02-22T12:23:22.845Z,13.48
2023-02-22T12:26:11.718Z,13.59
2023-02-22T12:29:06.717Z,13.75
2023-02-22T12:31:47.483Z,14.00
2023-02-22T12:34:27.775Z,14.29
2023-02-22T12:37:22.321Z,14.59
2023-02-22T12:39:58.757Z,14.83
2023-02-22T12:42:53.386Z,14.91
2023-02-22T12:46:04.719Z,14.89
2023-02-22T12:49:07.481Z,14.77
2023-02-22T12:52:21.194Z,14.61
2023-02-22T12:55:25.353Z,14.55
2023-02-22T12:58:25.964Z,14.55
2023-02-22T13:01:07.328Z,14.60
2023-02-22T13:03:41.470Z,14.63
2023-02-22T13:06:37.412Z,14.60
2023-02-22T13:09:26.873Z,14.55
2023-02-22T13:12:17.352Z,14.41
2023-02-22T13:15:18.142Z,14.26
2023-02-22T13:18:01.291Z,14.17
2023-02-22T13:21:06.502Z,14.05
2023-02-22T13:24:03.638Z,13.96
2023-02-22T13:26:53.026Z,13.98
2023-02-22T13:29:34.768Z,14.06
2023-02-22T13:32:19.996Z,14.16
2023-02-22T13:35:16.071Z,14.25
2023-02-22T13:38:41.025Z,14.37
2023-02-22T13:41:59.902Z,14.49
2023-02-22T13:44:49.559Z,14.60
2023-02-22T13:47:57.752Z,14.66
2023-02-22T13:50:52.110Z,14.72
2023-02-22T13:53:27.727Z,14.75
2023-02-22T13:56:00.672Z,14.75
2023-02-22T13:58:29.083Z,14.74
2023-02-22T14:01:00.203Z,14.76
2023-02-22T14:03:36.366Z,14.76
2023-02-22T14:06:10.762Z,14.77
2023-02-22T14:08:42.009Z,14.78
2023-02-22T14:11:13.418Z,14.81
2023-02-22T14:14:01.049Z,14.81
2023-02-22T14:16:31.503Z,14.77
2023-02-22T14:19:23.813Z,14.75
2023-02-22T14:22:05.940Z,14.74
2023-02-22T14:24:48.058Z,14.77
2023-02-22T14:27:17.655Z,14.89
2023-02-22T14:30:00.610Z,15.22
2023-02-22T14:32:35.076Z,15.45
2023-02-22T14:35:26.508Z,15.70
2023-02-22T14:38:00.959Z,15.96
2023-02-22T14:40:36.357Z,16.15
2023-02-22T14:43:21.205Z,16.37
2023-02-22T14:45:56.467Z,16.52
2023-02-22T14:48:43.006Z,16.67
2023-02-22T14:51:26.492Z,16.89
2023-02-22T14:54:20.798Z,17.16
2023-02-22T14:57:12.112Z,17.28
2023-02-22T14:59:58.919Z,17.56
2023-02-22T15:02:27.339Z,17.93
2023-02-22T15:04:56.424Z,18.35
2023-02-22T15:07:31.934Z,18.53
2023-02-22T15:10:21.806Z,18.43
2023-02-22T15:13:12.346Z,18.26
2023-02-22T15:15:50.021Z,18.02
2023-02-22T15:18:25.453Z,17.76
2023-02-22T15:20:58.706Z,17.51
2023-02-22T15:23:38.882Z,17.21
2023-02-22T15:26:16.037Z,16.86
2023-02-22T15:28:45.313Z,16.52
2023-02-22T15:31:24.463Z,16.24
2023-02-22T15:33:54.875Z,15.93
2023-02-22T15:36:31.035Z,15.65
2023-02-22T15:38:59.592Z,15.32
2023-02-22T15:41:32.800Z,15.01
2023-02-22T15:44:23.336Z,14.69
2023-02-22T15:46:55.263Z,14.39
2023-02-22T15:49:24.558Z,14.16
2023-02-22T15:52:24.552Z,13.92
2023-02-22T15:54:53.426Z,13.61
2023-02-22T15:57:25.470Z,13.34
2023-02-22T15:59:57.301Z,13.11
2023-02-22T16:02:39.237Z,12.89
2023-02-22T16:05:14.456Z,12.63
2023-02-22T16:07:49.915Z,12.40
2023-02-22T16:10:31.476Z,12.16
2023-02-22T16:13:30.952Z,11.92
2023-02-22T16:16:25.287Z,11.67
2023-02-22T16:19:22.026Z,11.40
2023-02-22T16:22:03.106Z,11.15
2023-02-22T16:24:36.324Z,10.95
2023-02-22T16:27:11.326Z,10.78
2023-02-22T16:29:40.110Z,10.62
2023-02-22T16:32:09.229Z,10.44
2023-02-22T16:34:37.729Z,10.29
2023-02-22T16:37:22.937Z,10.14
2023-02-22T16:39:51.861Z,9.98
2023-02-22T16:42:24.142Z,9.87
2023-02-22T16:44:53.458Z,9.76
2023-02-22T16:47:21.969Z,9.64
2023-02-22T16:49:52.867Z,9.50
2023-02-22T16:52:21.421Z,9.40
2023-02-22T16:54:51.864Z,9.31
2023-02-22T16:57:23.808Z,9.24
2023-02-22T16:59:52.955Z,9.18
2023-02-22T17:02:21.754Z,9.10
2023-02-22T17:04:50.336Z,9.02
2023-02-22T17:07:24.057Z,8.96
2023-02-22T17:09:52.548Z,8.90
2023-02-22T17:12:20.884Z,8.86
2023-02-22T17:14:49.273Z,8.81
2023-02-22T17:17:17.843Z,8.76
2023-02-22T17:19:46.183Z,8.71
2023-02-22T17:22:21.156Z,8.66
2023-02-22T17:24:49.983Z,8.60
2023-02-22T17:27:19.021Z,8.55
2023-02-22T17:29:49.036Z,8.49
2023-02-22T17:32:17.727Z,8.44
2023-02-22T17:34:46.626Z,8.39
2023-02-22T17:37:15.326Z,8.38
2023-02-22T17:39:43.648Z,8.33
2023-02-22T17:42:15.541Z,8.26
2023-02-22T17:44:44.186Z,8.21
2023-02-22T17:47:12.960Z,8.17
2023-02-22T17:49:41.897Z,8.16
2023-02-22T17:52:15.592Z,8.15
2023-02-22T17:54:45.509Z,8.14
2023-02-22T17:57:14.318Z,8.14
2023-02-22T17:59:43.004Z,8.12
2023-02-22T18:02:11.381Z,8.09
2023-02-22T18:04:40.475Z,8.07
2023-02-22T18:07:08.932Z,8.05
2023-02-22T18:09:37.424Z,8.02
2023-02-22T18:12:05.837Z,7.99
2023-02-22T18:14:34.250Z,7.97
2023-02-22T18:17:02.546Z,7.95
2023-02-22T18:19:31.031Z,7.94
2023-02-22T18:22:00.338Z,7.95
2023-02-22T18:24:34.226Z,7.95
2023-02-22T18:27:05.968Z,7.94
2023-02-22T18:29:34.408Z,7.94
2023-02-22T18:32:02.872Z,7.92
2023-02-22T18:34:33.055Z,7.90
2023-02-22T18:37:01.430Z,7.89
2023-02-22T18:39:33.865Z,7.87
2023-02-22T18:42:02.309Z,7.83
2023-02-22T18:44:32.104Z,7.79
2023-02-22T18:47:00.568Z,7.76
2023-02-22T18:49:29.085Z,7.74
2023-02-22T18:51:57.753Z,7.70
2023-02-22T18:54:26.283Z,7.64
2023-02-22T18:56:54.694Z,7.58
2023-02-22T18:59:23.256Z,7.52
2023-02-22T19:01:55.007Z,7.46
2023-02-22T19:04:25.279Z,7.39
2023-02-22T19:06:55.156Z,7.32
2023-02-22T19:09:27.478Z,7.24
2023-02-22T19:11:55.857Z,7.16
2023-02-22T19:14:24.334Z,7.06
2023-02-22T19:16:52.773Z,6.96
2023-02-22T19:19:21.380Z,6.85
2023-02-22T19:21:51.781Z,6.78
2023-02-22T19:24:20.733Z,6.70
2023-02-22T19:26:53.772Z,6.61
2023-02-22T19:29:23.836Z,6.54
2023-02-22T19:31:53.712Z,6.47
2023-02-22T19:34:24.665Z,6.41
2023-02-22T19:36:53.270Z,6.36
2023-02-22T19:41:58.825Z,6.23
2023-02-22T19:44:28.284Z,6.17
2023-02-22T19:46:56.709Z,6.09
2023-02-22T19:49:27.308Z,6.02
2023-02-22T19:51:58.049Z,5.93
2023-02-22T19:54:26.549Z,5.85
2023-02-22T19:56:57.023Z,5.78
2023-02-22T19:59:25.387Z,5.70
2023-02-22T20:01:54.831Z,5.61
2023-02-22T20:04:24.552Z,5.54
2023-02-22T20:06:54.738Z,5.45
2023-02-22T20:09:40.232Z,5.39
2023-02-22T20:12:09.487Z,5.31
2023-02-22T20:14:38.709Z,5.24
2023-02-22T20:17:08.036Z,5.18
2023-02-22T20:19:37.671Z,5.13
2023-02-22T20:22:06.542Z,5.08
2023-02-22T20:24:34.879Z,5.03
2023-02-22T20:27:03.313Z,4.99
2023-02-22T20:29:31.707Z,4.97
2023-02-22T20:32:02.556Z,4.94
2023-02-22T20:34:32.288Z,4.93
2023-02-22T20:37:01.584Z,4.92
2023-02-22T20:39:30.280Z,4.91
2023-02-22T20:42:02.746Z,4.91
2023-02-22T20:44:31.280Z,4.92
2023-02-22T20:47:00.031Z,4.92
2023-02-22T20:49:28.402Z,4.93
2023-02-22T20:51:56.800Z,4.93
2023-02-22T20:54:25.434Z,4.94
2023-02-22T20:56:54.017Z,4.95
2023-02-22T20:59:22.459Z,4.96
2023-02-22T21:01:53.028Z,4.98
2023-02-22T21:04:22.655Z,4.98
2023-02-22T21:06:51.984Z,4.98
2023-02-22T21:09:21.506Z,4.99
2023-02-22T21:11:50.524Z,4.99
2023-02-22T21:14:19.908Z,5.01
2023-02-22T21:16:51.218Z,5.02
2023-02-22T21:19:26.532Z,5.02
2023-02-22T21:21:59.772Z,5.02
2023-02-22T21:24:29.859Z,5.02
2023-02-22T21:26:59.163Z,5.02
2023-02-22T21:29:29.022Z,5.02
2023-02-22T21:31:57.794Z,5.01
2023-02-22T21:34:26.398Z,5.01
2023-02-22T21:36:54.839Z,5.00
2023-02-22T21:39:28.220Z,5.01
2023-02-22T21:42:00.724Z,5.01
2023-02-22T21:44:29.998Z,5.00
2023-02-22T21:46:58.522Z,4.99
2023-02-22T21:49:27.214Z,4.98
2023-02-22T21:51:56.786Z,4.95
2023-02-22T21:54:28.013Z,4.91
2023-02-22T21:56:56.598Z,4.86
2023-02-22T21:59:25.049Z,4.85
2023-02-22T22:01:56.350Z,4.82
2023-02-22T22:04:31.508Z,4.80
2023-02-22T22:07:01.690Z,4.78
2023-02-22T22:09:41.144Z,4.76
2023-02-22T22:12:10.821Z,4.74
2023-02-22T22:14:40.321Z,4.71
2023-02-22T22:17:09.625Z,4.68
2023-02-22T22:19:41.709Z,4.63
2023-02-22T22:22:11.004Z,4.60
2023-02-22T22:24:41.731Z,4.54
2023-02-22T22:27:12.838Z,4.49
2023-02-22T22:29:41.283Z,4.44
2023-02-22T22:32:10.654Z,4.39
2023-02-22T22:34:39.186Z,4.33
2023-02-22T22:37:08.683Z,4.27
2023-02-22T22:39:38.513Z,4.22
2023-02-22T22:42:09.075Z,4.16
2023-02-22T22:44:42.167Z,4.10
2023-02-22T22:47:14.072Z,4.00
2023-02-22T22:49:42.719Z,3.92
2023-02-22T22:52:16.436Z,3.85
2023-02-22T22:54:44.817Z,3.78
2023-02-22T22:57:13.651Z,3.70
2023-02-22T22:59:42.097Z,3.62
2023-02-22T23:02:11.430Z,3.54
2023-02-22T23:04:39.886Z,3.47
2023-02-22T23:07:08.527Z,3.41
2023-02-22T23:09:39.366Z,3.36
2023-02-22T23:12:16.723Z,3.30
2023-02-22T23:14:45.618Z,3.25
2023-02-22T23:17:26.860Z,3.21
2023-02-22T23:19:56.024Z,3.15
2023-02-22T23:22:24.541Z,3.12
2023-02-22T23:24:54.398Z,3.08
2023-02-22T23:27:23.758Z,3.04
2023-02-22T23:29:52.514Z,2.99
2023-02-22T23:32:21.061Z,2.95
2023-02-22T23:34:49.675Z,2.91
2023-02-22T23:37:20.710Z,2.88
2023-02-22T23:39:50.983Z,2.84
2023-02-22T23:42:19.443Z,2.80
2023-02-22T23:44:48.103Z,2.78
2023-02-22T23:47:16.552Z,2.76
2023-02-22T23:49:49.447Z,2.72
2023-02-22T23:52:24.101Z,2.69
2023-02-22T23:54:54.051Z,2.64
2023-02-22T23:57:24.125Z,2.61
2023-02-22T23:59:52.444Z,2.57
